createdAt,value
2022-08-20T00:02:15.621Z,98701.66
2022-08-20T00:04:44.736Z,98698.30
2022-08-20T00:07:14.595Z,98697.05
2022-08-20T00:09:43.749Z,98698.98
2022-08-20T00:12:16.750Z,98700.38
2022-08-20T00:14:44.958Z,98701.75
2022-08-20T00:17:13.362Z,98703.27
2022-08-20T00:19:41.796Z,98707.32
2022-08-20T00:22:10.288Z,98708.54
2022-08-20T00:24:38.769Z,98716.39
2022-08-20T00:27:07.240Z,98717.14
2022-08-20T00:29:35.781Z,98723.67
2022-08-20T00:32:04.595Z,98723.38
2022-08-20T00:34:33.008Z,98720.96
2022-08-20T00:37:01.509Z,98719.64
2022-08-20T00:39:29.911Z,98717.83
2022-08-20T00:41:58.295Z,98722.50
2022-08-20T00:44:27.383Z,98723.17
2022-08-20T00:46:55.881Z,98721.16
2022-08-20T00:49:32.638Z,98724.02
2022-08-20T00:52:08.216Z,98721.69
2022-08-20T00:54:44.560Z,98715.94
2022-08-20T00:57:51.230Z,98712.69
2022-08-20T01:00:46.480Z,98706.16
2022-08-20T01:03:17.837Z,98698.11
2022-08-20T01:05:51.906Z,98697.25
2022-08-20T01:08:24.343Z,98701.41
2022-08-20T01:11:07.648Z,98699.52
2022-08-20T01:13:38.917Z,98699.55
2022-08-20T01:16:18.347Z,98701.27
2022-08-20T01:18:48.808Z,98696.17
2022-08-20T01:21:28.602Z,98690.13
2022-08-20T01:24:21.272Z,98693.88
2022-08-20T01:26:50.829Z,98696.96
2022-08-20T01:29:29.607Z,98691.45
2022-08-20T01:32:01.636Z,98687.71
2022-08-20T01:34:30.481Z,98692.16
2022-08-20T01:36:59.576Z,98680.14
2022-08-20T01:39:33.017Z,98670.70
2022-08-20T01:42:04.315Z,98673.64
2022-08-20T01:44:33.797Z,98670.99
2022-08-20T01:47:31.461Z,98674.38
2022-08-20T01:50:18.105Z,98687.39
2022-08-20T01:52:59.487Z,98702.57
2022-08-20T01:55:28.347Z,98705.88
2022-08-20T01:57:58.162Z,98709.36
2022-08-20T02:00:26.786Z,98710.18
2022-08-20T02:02:55.265Z,98709.16
2022-08-20T02:05:24.786Z,98708.09
2022-08-20T02:07:59.032Z,98712.44
2022-08-20T02:10:28.252Z,98713.67
2022-08-20T02:13:01.916Z,98719.89
2022-08-20T02:15:34.430Z,98722.22
2022-08-20T02:18:08.971Z,98716.86
2022-08-20T02:20:38.171Z,98713.98
2022-08-20T02:23:08.173Z,98710.91
2022-08-20T02:25:40.447Z,98710.83
2022-08-20T02:28:12.286Z,98706.45
2022-08-20T02:30:44.815Z,98706.80
2022-08-20T02:33:16.300Z,98703.08
2022-08-20T02:35:48.167Z,98701.17
2022-08-20T02:38:17.189Z,98696.94
2022-08-20T02:40:46.972Z,98691.30
2022-08-20T02:43:18.128Z,98694.28
2022-08-20T02:45:46.647Z,98698.95
2022-08-20T02:48:23.628Z,98701.31
2022-08-20T02:50:56.897Z,98697.98
2022-08-20T02:53:26.428Z,98690.77
2022-08-20T02:55:56.217Z,98692.96
2022-08-20T02:58:24.861Z,98697.04
2022-08-20T03:00:53.998Z,98698.37
2022-08-20T03:03:24.571Z,98694.03
2022-08-20T03:05:55.876Z,98689.91
2022-08-20T03:08:25.825Z,98687.41
2022-08-20T03:10:54.884Z,98694.83
2022-08-20T03:13:24.803Z,98700.75
2022-08-20T03:15:59.034Z,98703.55
2022-08-20T03:18:32.326Z,98697.13
2022-08-20T03:21:01.363Z,98696.88
2022-08-20T03:23:29.840Z,98699.04
2022-08-20T03:25:58.795Z,98697.58
2022-08-20T03:28:28.311Z,98695.84
2022-08-20T03:30:58.150Z,98690.55
2022-08-20T03:33:28.087Z,98683.27
2022-08-20T03:35:56.574Z,98684.44
2022-08-20T03:38:32.237Z,98687.83
2022-08-20T03:41:03.478Z,98685.86
2022-08-20T03:43:32.729Z,98672.86
2022-08-20T03:46:02.473Z,98668.33
2022-08-20T03:48:31.025Z,98662.30
2022-08-20T03:51:01.149Z,98665.02
2022-08-20T03:53:33.023Z,98672.88
2022-08-20T03:56:06.084Z,98669.42
2022-08-20T03:58:36.337Z,98664.14
2022-08-20T04:01:07.308Z,98659.04
2022-08-20T04:03:37.508Z,98659.91
2022-08-20T04:06:06.156Z,98669.13
2022-08-20T04:08:35.148Z,98674.85
2022-08-20T04:11:03.686Z,98684.36
2022-08-20T04:13:32.281Z,98686.96
2022-08-20T04:16:13.358Z,98684.86
2022-08-20T04:19:01.634Z,98686.94
2022-08-20T04:21:33.312Z,98685.80
2022-08-20T04:24:04.708Z,98682.05
2022-08-20T04:26:35.597Z,98673.93
2022-08-20T04:29:04.755Z,98675.45
2022-08-20T04:31:34.089Z,98675.91
2022-08-20T04:34:04.647Z,98680.70
2022-08-20T04:36:33.135Z,98688.16
2022-08-20T04:39:01.696Z,98685.83
2022-08-20T04:41:30.133Z,98674.55
2022-08-20T04:43:58.629Z,98667.35
2022-08-20T04:46:29.132Z,98664.39
2022-08-20T04:48:58.147Z,98664.38
2022-08-20T04:51:27.189Z,98666.45
2022-08-20T04:53:57.494Z,98664.05
2022-08-20T04:56:29.488Z,98661.63
2022-08-20T04:59:01.012Z,98652.85
2022-08-20T05:01:29.592Z,98649.02
2022-08-20T05:03:58.707Z,98652.79
2022-08-20T05:06:31.478Z,98653.30
2022-08-20T05:09:01.071Z,98659.23
2022-08-20T05:11:36.099Z,98663.61
2022-08-20T05:14:09.381Z,98666.80
2022-08-20T05:16:39.605Z,98664.98
2022-08-20T05:19:11.618Z,98663.90
2022-08-20T05:21:40.648Z,98661.36
2022-08-20T05:24:10.665Z,98658.23
2022-08-20T05:26:39.280Z,98655.08
2022-08-20T05:29:07.749Z,98652.61
2022-08-20T05:31:36.284Z,98650.95
2022-08-20T05:34:10.421Z,98650.58
2022-08-20T05:36:41.827Z,98649.70
2022-08-20T05:39:11.231Z,98652.84
2022-08-20T05:41:40.456Z,98655.73
2022-08-20T05:44:13.515Z,98657.87
2022-08-20T05:46:45.067Z,98649.55
2022-08-20T05:49:16.795Z,98652.02
2022-08-20T05:51:45.312Z,98647.91
2022-08-20T05:54:14.471Z,98643.98
2022-08-20T05:56:43.324Z,98642.32
2022-08-20T05:59:14.352Z,98644.19
2022-08-20T06:01:43.420Z,98644.98
2022-08-20T06:04:28.768Z,98644.44
2022-08-20T06:07:02.477Z,98652.57
2022-08-20T06:09:32.894Z,98654.46
2022-08-20T06:12:06.278Z,98659.11
2022-08-20T06:14:34.998Z,98663.52
2022-08-20T06:17:13.517Z,98667.80
2022-08-20T06:19:44.510Z,98669.42
2022-08-20T06:22:18.717Z,98665.08
2022-08-20T06:24:53.649Z,98666.27
2022-08-20T06:27:22.660Z,98661.84
2022-08-20T06:29:51.650Z,98659.02
2022-08-20T06:32:31.802Z,98652.71
2022-08-20T06:35:03.658Z,98644.52
2022-08-20T06:37:36.654Z,98633.80
2022-08-20T06:40:16.508Z,98630.65
2022-08-20T06:42:48.468Z,98624.67
2022-08-20T06:45:21.140Z,98623.26
2022-08-20T06:47:49.668Z,98627.51
2022-08-20T06:50:22.585Z,98629.35
2022-08-20T06:52:52.898Z,98634.48
2022-08-20T06:55:22.477Z,98638.80
2022-08-20T06:58:02.458Z,98641.21
2022-08-20T07:00:33.552Z,98638.13
2022-08-20T07:03:02.852Z,98635.65
2022-08-20T07:05:34.669Z,98638.21
2022-08-20T07:08:04.484Z,98639.98
2022-08-20T07:10:32.877Z,98642.69
2022-08-20T07:13:01.416Z,98643.70
2022-08-20T07:15:30.740Z,98644.13
2022-08-20T07:18:02.019Z,98643.50
2022-08-20T07:20:32.110Z,98637.56
2022-08-20T07:23:01.333Z,98639.69
2022-08-20T07:25:31.969Z,98642.37
2022-08-20T07:28:05.566Z,98645.75
2022-08-20T07:30:56.033Z,98650.98
2022-08-20T07:33:28.752Z,98652.06
2022-08-20T07:36:00.139Z,98652.65
2022-08-20T07:38:30.831Z,98648.46
2022-08-20T07:41:07.513Z,98649.95
2022-08-20T07:43:36.637Z,98648.73
2022-08-20T07:46:08.587Z,98648.48
2022-08-20T07:48:40.187Z,98643.86
2022-08-20T07:51:11.235Z,98640.61
2022-08-20T07:53:41.207Z,98641.16
2022-08-20T07:56:12.955Z,98643.77
2022-08-20T07:58:50.454Z,98642.66
2022-08-20T08:01:22.366Z,98650.00
2022-08-20T08:03:50.950Z,98645.66
2022-08-20T08:06:29.330Z,98646.33
2022-08-20T08:09:04.648Z,98645.16
2022-08-20T08:11:38.025Z,98644.08
2022-08-20T08:14:10.121Z,98647.10
2022-08-20T08:16:39.372Z,98648.88
2022-08-20T08:19:12.208Z,98644.13
2022-08-20T08:21:41.645Z,98637.61
2022-08-20T08:24:14.368Z,98635.23
2022-08-20T08:26:45.183Z,98629.90
2022-08-20T08:29:13.690Z,98627.01
2022-08-20T08:31:42.476Z,98625.29
2022-08-20T08:34:11.863Z,98622.40
2022-08-20T08:36:40.686Z,98624.89
2022-08-20T08:39:09.119Z,98618.85
2022-08-20T08:41:48.230Z,98622.76
2022-08-20T08:44:23.618Z,98619.11
2022-08-20T08:47:00.801Z,98616.53
2022-08-20T08:49:38.069Z,98613.29
2022-08-20T08:52:19.941Z,98613.91
2022-08-20T08:54:53.379Z,98612.91
2022-08-20T08:57:21.881Z,98609.23
2022-08-20T09:00:03.924Z,98606.35
2022-08-20T09:02:38.999Z,98598.73
2022-08-20T09:05:21.286Z,98595.22
2022-08-20T09:07:53.139Z,98595.62
2022-08-20T09:10:23.559Z,98589.29
2022-08-20T09:12:52.557Z,98595.30
2022-08-20T09:15:21.556Z,98597.41
2022-08-20T09:17:51.038Z,98591.27
2022-08-20T09:20:19.657Z,98588.17
2022-08-20T09:22:50.284Z,98585.51
2022-08-20T09:25:21.143Z,98582.67
2022-08-20T09:27:49.590Z,98583.08
2022-08-20T09:30:19.565Z,98584.77
2022-08-20T09:32:48.812Z,98579.70
2022-08-20T09:35:18.205Z,98570.91
2022-08-20T09:37:47.167Z,98567.22
2022-08-20T09:40:21.066Z,98569.95
2022-08-20T09:42:51.091Z,98566.61
2022-08-20T09:45:19.882Z,98567.65
2022-08-20T09:47:54.854Z,98565.39
2022-08-20T09:50:27.828Z,98560.31
2022-08-20T09:52:59.562Z,98560.84
2022-08-20T09:55:38.464Z,98566.15
2022-08-20T09:58:35.337Z,98561.23
2022-08-20T10:01:13.727Z,98556.55
2022-08-20T10:03:44.736Z,98558.45
2022-08-20T10:06:14.943Z,98555.59
2022-08-20T10:08:44.143Z,98552.97
2022-08-20T10:11:12.660Z,98552.55
2022-08-20T10:13:41.343Z,98550.25
2022-08-20T10:16:09.777Z,98553.66
2022-08-20T10:18:38.414Z,98553.20
2022-08-20T10:21:13.218Z,98554.77
2022-08-20T10:23:42.157Z,98553.08
2022-08-20T10:26:12.608Z,98551.09
2022-08-20T10:28:41.163Z,98553.60
2022-08-20T10:31:12.398Z,98551.60
2022-08-20T10:33:41.741Z,98552.69
2022-08-20T10:36:13.364Z,98550.04
2022-08-20T10:38:43.237Z,98547.50
2022-08-20T10:41:11.930Z,98545.80
2022-08-20T10:43:40.500Z,98547.72
2022-08-20T10:46:09.332Z,98550.54
2022-08-20T10:48:38.488Z,98548.73
2022-08-20T10:51:07.034Z,98548.66
2022-08-20T10:53:36.224Z,98544.20
2022-08-20T10:56:04.769Z,98542.86
2022-08-20T10:58:39.328Z,98541.67
2022-08-20T11:01:09.040Z,98544.98
2022-08-20T11:03:37.523Z,98540.23
2022-08-20T11:06:06.239Z,98538.61
2022-08-20T11:08:36.055Z,98538.63
2022-08-20T11:11:06.168Z,98535.55
2022-08-20T11:13:35.782Z,98535.38
2022-08-20T11:16:05.168Z,98531.13
2022-08-20T11:18:33.724Z,98530.35
2022-08-20T11:21:02.329Z,98521.25
2022-08-20T11:23:30.752Z,98515.84
2022-08-20T11:25:59.552Z,98516.02
2022-08-20T11:28:31.877Z,98511.82
2022-08-20T11:31:01.976Z,98503.06
2022-08-20T11:33:31.048Z,98500.46
2022-08-20T11:35:59.408Z,98492.48
2022-08-20T11:38:27.804Z,98485.05
2022-08-20T11:40:56.434Z,98483.80
2022-08-20T11:43:24.889Z,98483.09
2022-08-20T11:45:56.429Z,98479.77
2022-08-20T11:48:24.944Z,98476.79
2022-08-20T11:50:53.504Z,98472.67
2022-08-20T11:53:22.363Z,98471.75
2022-08-20T11:55:51.139Z,98463.42
2022-08-20T11:58:19.600Z,98455.30
2022-08-20T12:00:48.220Z,98458.44
2022-08-20T12:03:16.865Z,98455.13
2022-08-20T12:05:47.138Z,98451.01
2022-08-20T12:08:25.261Z,98455.72
2022-08-20T12:11:00.457Z,98455.74
2022-08-20T12:13:48.373Z,98451.55
2022-08-20T12:16:19.432Z,98450.39
2022-08-20T12:18:48.825Z,98452.10
2022-08-20T12:21:17.828Z,98458.71
2022-08-20T12:23:46.326Z,98472.23
2022-08-20T12:26:16.869Z,98480.21
2022-08-20T12:28:45.415Z,98495.23
2022-08-20T12:31:13.874Z,98502.09
2022-08-20T12:33:42.349Z,98504.53
2022-08-20T12:36:11.298Z,98512.34
2022-08-20T12:38:39.724Z,98514.96
2022-08-20T12:41:08.538Z,98518.06
2022-08-20T12:43:37.092Z,98514.44
2022-08-20T12:46:05.636Z,98513.48
2022-08-20T12:48:34.041Z,98511.29
2022-08-20T12:51:02.530Z,98516.55
2022-08-20T12:53:30.949Z,98517.46
2022-08-20T12:56:00.070Z,98527.91
2022-08-20T12:58:28.585Z,98527.55
2022-08-20T13:00:56.969Z,98529.70
2022-08-20T13:03:25.387Z,98538.52
2022-08-20T13:05:55.327Z,98539.69
2022-08-20T13:08:23.889Z,98547.73
2022-08-20T13:10:52.319Z,98547.21
2022-08-20T13:13:21.246Z,98548.02
2022-08-20T13:15:51.315Z,98551.55
2022-08-20T13:18:20.667Z,98552.73
2022-08-20T13:20:50.022Z,98554.52
2022-08-20T13:23:18.474Z,98552.73
2022-08-20T13:25:46.876Z,98552.95
2022-08-20T13:28:15.419Z,98555.01
2022-08-20T13:30:43.884Z,98554.38
2022-08-20T13:33:12.299Z,98555.59
2022-08-20T13:35:41.021Z,98559.34
2022-08-20T13:38:09.412Z,98560.65
2022-08-20T13:40:37.880Z,98564.73
2022-08-20T13:43:07.550Z,98565.77
2022-08-20T13:45:41.305Z,98570.77
2022-08-20T13:48:14.984Z,98567.23
2022-08-20T13:50:47.366Z,98568.02
2022-08-20T13:53:16.709Z,98565.16
2022-08-20T13:55:46.849Z,98564.53
2022-08-20T13:58:15.421Z,98565.11
2022-08-20T14:00:48.444Z,98571.15
2022-08-20T14:03:20.000Z,98584.70
2022-08-20T14:05:54.416Z,98591.88
2022-08-20T14:08:24.501Z,98602.26
2022-08-20T14:10:53.027Z,98595.23
2022-08-20T14:13:25.120Z,98594.23
2022-08-20T14:15:54.517Z,98602.21
2022-08-20T14:18:23.345Z,98610.65
2022-08-20T14:20:51.819Z,98612.52
2022-08-20T14:23:20.400Z,98606.38
2022-08-20T14:25:50.345Z,98609.11
2022-08-20T14:28:22.433Z,98619.84
2022-08-20T14:30:53.025Z,98626.46
2022-08-20T14:33:24.342Z,98620.79
2022-08-20T14:35:53.412Z,98614.39
2022-08-20T14:38:22.541Z,98614.95
2022-08-20T14:40:54.284Z,98613.25
2022-08-20T14:43:22.991Z,98612.89
2022-08-20T14:45:53.752Z,98613.27
2022-08-20T14:48:25.636Z,98612.02
2022-08-20T14:50:57.275Z,98606.48
2022-08-20T14:53:26.264Z,98603.53
2022-08-20T14:55:54.849Z,98603.91
2022-08-20T14:58:23.352Z,98608.59
2022-08-20T15:00:53.612Z,98611.33
2022-08-20T15:03:24.182Z,98606.44
2022-08-20T15:05:52.586Z,98605.92
2022-08-20T15:08:23.216Z,98607.77
2022-08-20T15:10:58.431Z,98607.08
2022-08-20T15:13:26.926Z,98601.98
2022-08-20T15:15:55.617Z,98604.36
2022-08-20T15:18:25.425Z,98608.13
2022-08-20T15:20:53.969Z,98605.48
2022-08-20T15:23:23.168Z,98605.27
2022-08-20T15:25:51.693Z,98612.26
2022-08-20T15:28:20.238Z,98615.09
2022-08-20T15:30:48.683Z,98616.27
2022-08-20T15:33:17.159Z,98616.64
2022-08-20T15:35:45.729Z,98623.34
2022-08-20T15:38:14.196Z,98619.08
2022-08-20T15:40:42.687Z,98620.67
2022-08-20T15:43:11.235Z,98621.65
2022-08-20T15:45:39.671Z,98623.92
2022-08-20T15:48:18.836Z,98623.14
2022-08-20T15:51:25.984Z,98625.70
2022-08-20T15:54:18.510Z,98622.88
2022-08-20T15:57:05.551Z,98623.98
2022-08-20T15:59:33.940Z,98620.58
2022-08-20T16:02:26.002Z,98613.21
2022-08-20T16:05:19.165Z,98616.50
2022-08-20T16:08:15.600Z,98611.59
2022-08-20T16:10:43.953Z,98610.83
2022-08-20T16:13:47.808Z,98609.90
2022-08-20T16:16:33.305Z,98612.80
2022-08-20T16:19:02.376Z,98609.03
2022-08-20T16:21:37.681Z,98603.41
2022-08-20T16:24:13.794Z,98598.65
2022-08-20T16:26:48.527Z,98598.42
2022-08-20T16:29:24.496Z,98603.88
2022-08-20T16:32:02.204Z,98600.77
2022-08-20T16:34:40.675Z,98604.54
2022-08-20T16:37:38.362Z,98603.73
2022-08-20T16:40:10.013Z,98602.48
2022-08-20T16:42:44.492Z,98608.86
2022-08-20T16:45:20.595Z,98612.48
2022-08-20T16:47:51.179Z,98616.41
2022-08-20T16:50:26.975Z,98622.08
2022-08-20T16:52:55.675Z,98621.51
2022-08-20T16:55:25.433Z,98625.08
2022-08-20T16:57:54.889Z,98636.64
2022-08-20T17:00:44.844Z,98635.77
2022-08-20T17:03:31.524Z,98645.02
2022-08-20T17:06:30.819Z,98650.13
2022-08-20T17:09:02.529Z,98654.11
2022-08-20T17:12:14.090Z,98651.52
2022-08-20T17:14:52.861Z,98650.52
2022-08-20T17:17:28.184Z,98653.94
2022-08-20T17:20:20.020Z,98652.35
2022-08-20T17:22:53.894Z,98653.65
2022-08-20T17:25:38.356Z,98648.63
2022-08-20T17:28:19.795Z,98648.62
2022-08-20T17:30:49.970Z,98646.41
2022-08-20T17:33:36.664Z,98646.34
2022-08-20T17:36:17.290Z,98642.77
2022-08-20T17:39:00.901Z,98638.30
2022-08-20T17:41:29.327Z,98640.43
2022-08-20T17:44:06.942Z,98647.06
2022-08-20T17:46:45.771Z,98649.97
2022-08-20T17:49:34.828Z,98647.23
2022-08-20T17:52:11.652Z,98645.20
2022-08-20T17:54:44.601Z,98643.77
2022-08-20T17:57:15.531Z,98638.84
2022-08-20T18:00:00.896Z,98634.86
2022-08-20T18:02:34.919Z,98629.17
2022-08-20T18:05:10.307Z,98630.70
2022-08-20T18:07:42.299Z,98628.90
2022-08-20T18:10:18.568Z,98628.73
2022-08-20T18:13:11.605Z,98626.30
2022-08-20T18:15:58.419Z,98626.16
2022-08-20T18:18:56.859Z,98627.40
2022-08-20T18:21:44.765Z,98631.42
2022-08-20T18:24:20.853Z,98628.29
2022-08-20T18:26:54.253Z,98628.86
2022-08-20T18:29:34.192Z,98629.75
2022-08-20T18:32:07.486Z,98629.90
2022-08-20T18:34:40.439Z,98626.80
2022-08-20T18:37:14.709Z,98625.34
2022-08-20T18:39:49.288Z,98625.02
2022-08-20T18:42:17.539Z,98624.80
2022-08-20T18:44:48.417Z,98623.21
2022-08-20T18:47:25.635Z,98623.45
2022-08-20T18:50:16.492Z,98623.98
2022-08-20T18:53:08.509Z,98627.66
2022-08-20T18:55:43.724Z,98625.89
2022-08-20T18:58:31.104Z,98621.63
2022-08-20T19:01:05.125Z,98612.52
2022-08-20T19:03:36.359Z,98612.92
2022-08-20T19:06:13.999Z,98615.40
2022-08-20T19:08:52.734Z,98606.00
2022-08-20T19:11:23.904Z,98603.02
2022-08-20T19:14:15.453Z,98599.20
2022-08-20T19:16:58.451Z,98594.64
2022-08-20T19:19:32.234Z,98590.60
2022-08-20T19:22:28.395Z,98588.27
2022-08-20T19:25:00.046Z,98588.23
2022-08-20T19:27:29.730Z,98593.41
2022-08-20T19:30:02.708Z,98599.25
2022-08-20T19:32:45.161Z,98603.59
2022-08-20T19:35:17.872Z,98603.61
2022-08-20T19:37:51.479Z,98600.61
2022-08-20T19:40:28.730Z,98606.40
2022-08-20T19:43:03.228Z,98602.48
2022-08-20T19:45:41.117Z,98602.20
2022-08-20T19:48:28.499Z,98602.92
2022-08-20T19:51:07.038Z,98604.33
2022-08-20T19:53:43.159Z,98600.29
2022-08-20T19:56:21.806Z,98595.88
2022-08-20T19:59:05.534Z,98596.00
2022-08-20T20:01:34.921Z,98598.04
2022-08-20T20:04:16.765Z,98596.62
2022-08-20T20:06:49.262Z,98597.57
2022-08-20T20:09:29.891Z,98598.22
2022-08-20T20:12:04.092Z,98599.02
2022-08-20T20:15:23.744Z,98601.05
2022-08-20T20:17:54.009Z,98607.69
2022-08-20T20:20:35.234Z,98604.54
2022-08-20T20:23:20.678Z,98606.14
2022-08-20T20:25:58.182Z,98604.88
2022-08-20T20:28:41.939Z,98608.96
2022-08-20T20:31:14.772Z,98612.19
2022-08-20T20:33:44.454Z,98619.27
2022-08-20T20:36:17.095Z,98621.01
2022-08-20T20:38:58.144Z,98624.17
2022-08-20T20:41:29.129Z,98623.33
2022-08-20T20:44:20.605Z,98621.80
2022-08-20T20:47:00.565Z,98617.89
2022-08-20T20:49:35.966Z,98615.22
2022-08-20T20:52:15.052Z,98614.11
2022-08-20T20:54:46.288Z,98614.52
2022-08-20T20:57:34.246Z,98612.65
2022-08-20T21:00:14.561Z,98604.23
2022-08-20T21:02:47.633Z,98601.34
2022-08-20T21:05:18.041Z,98602.59
2022-08-20T21:07:51.477Z,98605.79
2022-08-20T21:10:23.357Z,98599.53
2022-08-20T21:12:53.428Z,98598.64
2022-08-20T21:15:24.458Z,98592.33
2022-08-20T21:17:54.972Z,98594.08
2022-08-20T21:20:23.405Z,98594.61
2022-08-20T21:22:52.047Z,98597.38
2022-08-20T21:25:20.741Z,98596.60
2022-08-20T21:27:50.945Z,98595.89
2022-08-20T21:30:21.422Z,98599.98
2022-08-20T21:32:50.802Z,98595.27
2022-08-20T21:35:21.186Z,98589.52
2022-08-20T21:37:50.929Z,98592.20
2022-08-20T21:40:21.695Z,98589.04
2022-08-20T21:42:51.338Z,98591.35
2022-08-20T21:45:20.279Z,98593.53
2022-08-20T21:47:48.995Z,98592.45
2022-08-20T21:50:20.380Z,98590.71
2022-08-20T21:52:55.483Z,98591.59
2022-08-20T21:55:39.789Z,98594.89
2022-08-20T21:58:09.027Z,98593.89
2022-08-20T22:00:53.765Z,98595.75
2022-08-20T22:03:24.013Z,98597.02
2022-08-20T22:05:53.133Z,98596.33
2022-08-20T22:08:26.062Z,98597.81
2022-08-20T22:10:59.503Z,98596.19
2022-08-20T22:13:31.888Z,98596.88
2022-08-20T22:16:07.283Z,98593.99
2022-08-20T22:18:36.533Z,98592.45
2022-08-20T22:21:07.872Z,98587.33
2022-08-20T22:23:40.131Z,98585.20
2022-08-20T22:26:09.103Z,98584.67
2022-08-20T22:28:38.790Z,98584.38
2022-08-20T22:31:07.881Z,98584.16
2022-08-20T22:33:37.087Z,98584.88
2022-08-20T22:36:07.180Z,98587.14
2022-08-20T22:38:35.557Z,98590.33
2022-08-20T22:41:09.430Z,98595.29
2022-08-20T22:43:43.412Z,98590.27
2022-08-20T22:46:28.831Z,98593.13
2022-08-20T22:48:57.847Z,98591.21
2022-08-20T22:51:34.624Z,98595.27
2022-08-20T22:54:05.952Z,98590.66
2022-08-20T22:56:34.484Z,98593.41
2022-08-20T22:59:03.720Z,98588.95
2022-08-20T23:01:32.450Z,98585.73
2022-08-20T23:04:12.668Z,98582.42
2022-08-20T23:06:42.224Z,98578.15
2022-08-20T23:09:12.810Z,98576.26
2022-08-20T23:11:41.691Z,98575.11
2022-08-20T23:14:10.295Z,98579.36
2022-08-20T23:16:44.845Z,98581.78
2022-08-20T23:19:23.005Z,98579.67
2022-08-20T23:21:51.916Z,98580.21
2022-08-20T23:24:21.131Z,98584.95
2022-08-20T23:26:53.050Z,98585.78
2022-08-20T23:29:25.834Z,98584.59
2022-08-20T23:31:56.133Z,98583.63
2022-08-20T23:34:26.624Z,98585.15
2022-08-20T23:36:56.773Z,98581.55
2022-08-20T23:39:26.408Z,98573.11
2022-08-20T23:41:55.428Z,98566.95
2022-08-20T23:44:27.579Z,98568.30
2022-08-20T23:46:59.638Z,98569.20
2022-08-20T23:49:29.647Z,98563.78
2022-08-20T23:52:00.818Z,98564.97
2022-08-20T23:54:33.103Z,98563.41
2022-08-20T23:57:08.090Z,98563.35
2022-08-20T23:59:37.140Z,98559.22
